createdAt,value
2018-07-22T00:00:51.944Z,5.03
2018-07-22T00:03:20.474Z,5.27
2018-07-22T00:05:48.825Z,4.80
2018-07-22T00:08:17.215Z,5.13
2018-07-22T00:10:45.286Z,4.87
2018-07-22T00:13:13.375Z,4.73
2018-07-22T00:15:41.888Z,5.17
2018-07-22T00:18:09.956Z,5.40
2018-07-22T00:20:38.075Z,5.07
2018-07-22T00:23:06.178Z,4.93
2018-07-22T00:25:34.266Z,5.47
2018-07-22T00:28:02.334Z,5.20
2018-07-22T00:30:30.591Z,5.27
2018-07-22T00:32:58.650Z,4.80
2018-07-22T00:35:26.714Z,4.97
2018-07-22T00:37:55.098Z,4.97
2018-07-22T00:40:23.279Z,5.50
2018-07-22T00:42:51.352Z,5.67
2018-07-22T00:45:19.582Z,5.43
2018-07-22T00:47:47.840Z,5.80
2018-07-22T00:50:16.376Z,5.87
2018-07-22T00:52:44.682Z,5.77
2018-07-22T00:55:12.738Z,5.70
2018-07-22T00:57:40.794Z,5.60
2018-07-22T01:00:09.113Z,5.37
2018-07-22T01:02:37.126Z,5.60
2018-07-22T01:05:05.755Z,5.50
2018-07-22T01:07:34.106Z,6.08
2018-07-22T01:10:02.211Z,5.00
2018-07-22T01:12:30.667Z,5.60
2018-07-22T01:14:58.842Z,6.33
2018-07-22T01:17:27.021Z,5.93
2018-07-22T01:19:55.108Z,5.13
2018-07-22T01:22:23.457Z,5.63
2018-07-22T01:24:51.518Z,5.80
2018-07-22T01:27:19.578Z,6.03
2018-07-22T01:29:47.642Z,6.23
2018-07-22T01:32:15.709Z,4.93
2018-07-22T01:34:43.550Z,5.20
2018-07-22T01:37:11.762Z,5.97
2018-07-22T01:39:39.822Z,5.57
2018-07-22T01:42:07.966Z,5.27
2018-07-22T01:44:36.135Z,5.20
2018-07-22T01:47:04.198Z,5.17
2018-07-22T01:49:32.286Z,5.62
2018-07-22T01:52:00.418Z,5.57
2018-07-22T01:54:28.629Z,5.10
2018-07-22T01:56:57.010Z,4.83
2018-07-22T01:59:25.075Z,4.20
2018-07-22T02:01:53.154Z,5.10
2018-07-22T02:04:21.210Z,5.00
2018-07-22T02:06:49.500Z,5.20
2018-07-22T02:09:17.562Z,5.13
2018-07-22T02:11:45.723Z,4.73
2018-07-22T02:14:13.786Z,5.30
2018-07-22T02:16:41.922Z,5.03
2018-07-22T02:19:09.833Z,5.67
2018-07-22T02:21:37.938Z,5.73
2018-07-22T02:24:05.992Z,4.90
2018-07-22T02:26:34.078Z,5.70
2018-07-22T02:29:02.370Z,5.67
2018-07-22T02:31:30.444Z,5.53
2018-07-22T02:33:58.499Z,5.97
2018-07-22T02:36:26.734Z,5.60
2018-07-22T02:38:54.846Z,6.17
2018-07-22T02:41:22.925Z,6.20
2018-07-22T02:43:51.019Z,6.40
2018-07-22T02:46:19.125Z,6.50
2018-07-22T02:48:47.255Z,6.17
2018-07-22T02:51:15.805Z,6.33
2018-07-22T02:53:43.867Z,6.47
2018-07-22T02:56:11.946Z,6.57
2018-07-22T02:58:40.306Z,6.40
2018-07-22T03:01:08.389Z,6.97
2018-07-22T03:03:36.517Z,6.63
2018-07-22T03:06:04.721Z,6.97
2018-07-22T03:08:32.820Z,7.75
2018-07-22T03:11:00.916Z,7.73
2018-07-22T03:13:29.262Z,9.50
2018-07-22T03:15:57.331Z,8.97
2018-07-22T03:18:25.404Z,9.13
2018-07-22T03:20:53.486Z,10.30
2018-07-22T03:23:21.682Z,12.03
2018-07-22T03:25:49.759Z,13.23
2018-07-22T03:28:18.002Z,14.53
2018-07-22T03:30:46.062Z,16.33
2018-07-22T03:33:14.409Z,19.40
2018-07-22T03:35:42.477Z,17.90
2018-07-22T03:38:10.367Z,19.53
2018-07-22T03:40:38.667Z,22.87
2018-07-22T03:43:07.038Z,24.00
2018-07-22T03:45:35.108Z,25.23
2018-07-22T03:48:03.215Z,23.03
2018-07-22T03:50:31.278Z,24.33
2018-07-22T03:52:59.354Z,27.50
2018-07-22T03:55:27.436Z,30.92
2018-07-22T03:57:55.514Z,27.80
2018-07-22T04:00:23.794Z,27.93
2018-07-22T04:02:51.862Z,28.83
2018-07-22T04:05:20.302Z,30.17
2018-07-22T04:07:48.975Z,29.90
2018-07-22T04:10:17.011Z,31.57
2018-07-22T04:12:45.338Z,29.17
2018-07-22T04:15:13.418Z,31.97
2018-07-22T04:17:41.759Z,32.53
2018-07-22T04:20:10.166Z,31.17
2018-07-22T04:22:38.248Z,31.20
2018-07-22T04:25:06.347Z,32.67
2018-07-22T04:27:34.960Z,33.90
2018-07-22T04:30:03.040Z,35.37
2018-07-22T04:32:31.124Z,34.97
2018-07-22T04:35:00.193Z,34.63
2018-07-22T04:37:28.281Z,34.47
2018-07-22T04:39:56.345Z,35.52
2018-07-22T04:42:24.454Z,34.73
2018-07-22T04:44:52.610Z,36.80
2018-07-22T04:47:20.697Z,34.27
2018-07-22T04:49:49.070Z,31.53
2018-07-22T04:52:17.142Z,34.57
2018-07-22T04:54:45.270Z,35.00
2018-07-22T04:57:13.359Z,36.43
2018-07-22T04:59:41.583Z,35.10
2018-07-22T05:02:09.695Z,36.17
2018-07-22T05:04:38.080Z,38.93
2018-07-22T05:07:06.154Z,33.67
2018-07-22T05:09:34.225Z,38.67
2018-07-22T05:12:02.519Z,34.13
2018-07-22T05:14:30.582Z,37.63
2018-07-22T05:16:58.830Z,40.93
2018-07-22T05:19:27.162Z,40.90
2018-07-22T05:21:55.239Z,39.23
2018-07-22T05:24:23.349Z,39.20
2018-07-22T05:26:51.430Z,34.50
2018-07-22T05:29:19.601Z,37.60
2018-07-22T05:31:47.919Z,38.80
2018-07-22T05:34:15.984Z,39.63
2018-07-22T05:36:44.098Z,37.47
2018-07-22T05:39:12.707Z,33.47
2018-07-22T05:41:41.754Z,35.27
2018-07-22T05:44:09.830Z,28.83
2018-07-22T05:46:37.907Z,36.73
2018-07-22T05:49:06.224Z,34.70
2018-07-22T05:51:34.466Z,34.67
2018-07-22T05:54:02.617Z,34.53
2018-07-22T05:56:30.710Z,28.90
2018-07-22T05:58:58.775Z,30.23
2018-07-22T06:01:26.854Z,31.10
2018-07-22T06:03:54.922Z,28.83
2018-07-22T06:06:22.982Z,27.93
2018-07-22T06:08:51.062Z,27.67
2018-07-22T06:11:19.536Z,26.30
2018-07-22T06:13:47.650Z,24.93
2018-07-22T06:16:15.722Z,27.63
2018-07-22T06:18:44.166Z,22.73
2018-07-22T06:21:12.262Z,22.82
2018-07-22T06:23:40.378Z,18.55
2018-07-22T06:26:08.492Z,17.65
2018-07-22T06:28:36.614Z,20.30
2018-07-22T06:31:04.738Z,18.20
2018-07-22T06:33:33.206Z,18.07
2018-07-22T06:36:01.360Z,16.93
2018-07-22T06:38:29.463Z,17.00
2018-07-22T06:40:57.791Z,14.87
2018-07-22T06:43:25.866Z,14.20
2018-07-22T06:45:53.978Z,14.35
2018-07-22T06:48:22.376Z,12.37
2018-07-22T06:50:50.463Z,11.28
2018-07-22T06:53:18.594Z,11.70
2018-07-22T06:55:46.682Z,11.40
2018-07-22T06:58:14.778Z,10.90
2018-07-22T07:00:42.850Z,9.98
2018-07-22T07:03:11.191Z,9.50
2018-07-22T07:05:39.274Z,8.25
2018-07-22T07:08:07.418Z,8.48
2018-07-22T07:10:35.814Z,7.80
2018-07-22T07:13:03.906Z,6.10
2018-07-22T07:15:31.990Z,6.75
2018-07-22T07:18:00.357Z,6.60
2018-07-22T07:20:28.491Z,5.20
2018-07-22T07:22:56.630Z,4.80
2018-07-22T07:25:25.078Z,5.45
2018-07-22T07:27:53.134Z,7.47
2018-07-22T07:30:21.194Z,5.92
2018-07-22T07:32:49.616Z,3.95
2018-07-22T07:35:17.775Z,3.77
2018-07-22T07:37:45.986Z,5.85
2018-07-22T07:40:14.462Z,4.30
2018-07-22T07:42:42.519Z,3.80
2018-07-22T07:45:10.591Z,4.30
2018-07-22T07:47:38.962Z,4.50
2018-07-22T07:50:07.109Z,4.70
2018-07-22T07:52:35.186Z,4.62
2018-07-22T07:55:04.019Z,4.72
2018-07-22T07:57:32.114Z,4.28
2018-07-22T08:00:00.194Z,3.62
2018-07-22T08:02:28.527Z,3.58
2018-07-22T08:04:56.438Z,3.77
2018-07-22T08:07:24.524Z,3.95
2018-07-22T08:09:52.589Z,3.75
2018-07-22T08:12:20.677Z,4.00
2018-07-22T08:14:48.758Z,3.30
2018-07-22T08:17:17.898Z,3.92
2018-07-22T08:19:46.027Z,3.58
2018-07-22T08:22:14.113Z,3.42
2018-07-22T08:24:42.621Z,3.50
2018-07-22T08:27:10.691Z,3.15
2018-07-22T08:29:38.770Z,3.83
2018-07-22T08:32:07.512Z,3.70
2018-07-22T08:34:35.582Z,3.85
2018-07-22T08:37:03.655Z,3.85
2018-07-22T08:39:32.534Z,3.75
2018-07-22T08:42:01.024Z,3.92
2018-07-22T08:44:29.100Z,3.90
2018-07-22T08:46:57.168Z,3.87
2018-07-22T08:49:25.248Z,3.95
2018-07-22T08:51:54.218Z,3.37
2018-07-22T08:54:22.641Z,3.90
2018-07-22T08:56:50.835Z,4.28
2018-07-22T08:59:19.050Z,3.65
2018-07-22T09:01:47.411Z,3.95
2018-07-22T09:04:16.830Z,4.12
2018-07-22T09:06:47.209Z,3.83
2018-07-22T09:09:15.283Z,3.98
2018-07-22T09:11:43.541Z,4.10
2018-07-22T09:14:12.089Z,4.35
2018-07-22T09:16:41.990Z,4.00
2018-07-22T09:19:11.137Z,4.65
2018-07-22T09:21:39.673Z,4.15
2018-07-22T09:24:09.242Z,3.98
2018-07-22T09:26:37.297Z,4.12
2018-07-22T09:29:05.638Z,4.47
2018-07-22T09:31:33.714Z,5.22
2018-07-22T09:34:01.783Z,5.03
2018-07-22T09:36:30.195Z,4.97
2018-07-22T09:38:58.287Z,4.25
2018-07-22T09:41:26.418Z,5.50
2018-07-22T09:43:54.791Z,4.97
2018-07-22T09:46:22.831Z,5.03
2018-07-22T09:48:50.907Z,4.53
2018-07-22T09:51:19.003Z,6.03
2018-07-22T09:53:47.091Z,5.55
2018-07-22T09:56:15.339Z,5.33
2018-07-22T09:58:43.825Z,5.62
2018-07-22T10:01:11.917Z,5.53
2018-07-22T10:03:40.361Z,6.15
2018-07-22T10:06:08.925Z,5.87
2018-07-22T10:08:37.055Z,6.22
2018-07-22T10:11:05.520Z,6.28
2018-07-22T10:13:34.982Z,6.78
2018-07-22T10:16:02.811Z,6.67
2018-07-22T10:18:30.961Z,6.22
2018-07-22T10:21:01.044Z,6.42
2018-07-22T10:23:29.198Z,6.62
2018-07-22T10:25:57.254Z,6.20
2018-07-22T10:28:25.374Z,6.42
2018-07-22T10:30:53.482Z,5.78
2018-07-22T10:33:21.874Z,6.55
2018-07-22T10:35:50.250Z,6.50
2018-07-22T10:38:21.125Z,5.50
2018-07-22T10:40:49.392Z,6.25
2018-07-22T10:43:17.744Z,6.40
2018-07-22T10:45:45.846Z,6.22
2018-07-22T10:48:13.941Z,6.53
2018-07-22T10:50:42.330Z,7.35
2018-07-22T10:53:10.450Z,6.85
2018-07-22T10:55:38.339Z,7.25
2018-07-22T10:58:06.958Z,5.67
2018-07-22T11:00:35.555Z,6.90
2018-07-22T11:03:05.262Z,7.37
2018-07-22T11:05:33.582Z,7.58
2018-07-22T11:08:01.704Z,6.55
2018-07-22T11:10:29.908Z,7.15
2018-07-22T11:12:57.925Z,7.22
2018-07-22T11:15:26.008Z,7.12
2018-07-22T11:17:54.067Z,7.15
2018-07-22T11:20:22.397Z,7.65
2018-07-22T11:22:50.478Z,6.12
2018-07-22T11:25:18.662Z,7.70
2018-07-22T11:27:47.138Z,6.00
2018-07-22T11:30:15.210Z,6.75
2018-07-22T11:32:43.298Z,6.92
2018-07-22T11:35:11.354Z,7.47
2018-07-22T11:37:39.434Z,6.05
2018-07-22T11:40:07.522Z,7.33
2018-07-22T11:42:35.938Z,8.15
2018-07-22T11:45:04.432Z,6.80
2018-07-22T11:47:32.517Z,7.62
2018-07-22T11:50:00.854Z,7.90
2018-07-22T11:52:28.945Z,7.30
2018-07-22T11:54:57.032Z,8.13
2018-07-22T11:57:25.421Z,9.88
2018-07-22T11:59:53.523Z,9.23
2018-07-22T12:02:21.635Z,9.40
2018-07-22T12:04:50.027Z,8.90
2018-07-22T12:07:18.150Z,8.35
2018-07-22T12:09:46.086Z,10.75
2018-07-22T12:12:14.494Z,10.48
2018-07-22T12:14:42.567Z,10.18
2018-07-22T12:17:10.442Z,10.30
2018-07-22T12:19:38.824Z,9.35
2018-07-22T12:22:06.917Z,8.80
2018-07-22T12:24:35.013Z,8.45
2018-07-22T12:27:03.347Z,9.73
2018-07-22T12:29:33.095Z,8.58
2018-07-22T12:32:01.188Z,8.18
2018-07-22T12:34:30.367Z,7.40
2018-07-22T12:36:58.454Z,6.42
2018-07-22T12:39:26.550Z,6.28
2018-07-22T12:41:54.906Z,5.83
2018-07-22T12:44:23.045Z,6.83
2018-07-22T12:46:51.139Z,6.25
2018-07-22T12:49:19.509Z,6.92
2018-07-22T12:51:47.704Z,6.53
2018-07-22T12:54:16.147Z,6.55
2018-07-22T12:56:44.624Z,6.62
2018-07-22T12:59:12.700Z,6.37
2018-07-22T13:01:40.791Z,5.75
2018-07-22T13:04:09.166Z,5.58
2018-07-22T13:06:37.251Z,5.15
2018-07-22T13:09:07.415Z,5.97
2018-07-22T13:11:35.930Z,5.72
2018-07-22T13:14:04.214Z,5.72
2018-07-22T13:16:32.351Z,6.35
2018-07-22T13:19:01.064Z,6.05
2018-07-22T13:21:29.213Z,6.67
2018-07-22T13:23:58.243Z,6.47
2018-07-22T13:26:26.649Z,6.67
2018-07-22T13:28:54.729Z,6.92
2018-07-22T13:31:22.880Z,6.87
2018-07-22T13:33:51.618Z,6.47
2018-07-22T13:36:19.834Z,6.35
2018-07-22T13:38:47.994Z,7.42
2018-07-22T13:41:16.381Z,7.00
2018-07-22T13:43:44.566Z,8.40
2018-07-22T13:46:12.622Z,8.33
2018-07-22T13:48:41.009Z,9.23
2018-07-22T13:51:09.078Z,8.50
2018-07-22T13:53:37.150Z,8.10
2018-07-22T13:56:05.752Z,8.53
2018-07-22T13:58:33.805Z,8.98
2018-07-22T14:01:01.887Z,6.70
2018-07-22T14:03:30.267Z,5.87
2018-07-22T14:05:58.362Z,4.60
2018-07-22T14:08:26.478Z,5.00
2018-07-22T14:10:54.807Z,6.87
2018-07-22T14:13:22.967Z,7.37
2018-07-22T14:15:51.033Z,6.53
2018-07-22T14:18:19.415Z,6.53
2018-07-22T14:20:47.482Z,6.70
2018-07-22T14:23:15.558Z,5.78
2018-07-22T14:25:43.932Z,6.60
2018-07-22T14:28:12.091Z,5.85
2018-07-22T14:30:40.095Z,5.85
2018-07-22T14:33:08.643Z,5.70
2018-07-22T14:35:36.716Z,4.65
2018-07-22T14:38:04.854Z,4.37
2018-07-22T14:40:32.958Z,3.65
2018-07-22T14:43:01.015Z,3.85
2018-07-22T14:45:29.094Z,3.27
2018-07-22T14:47:57.390Z,3.00
2018-07-22T14:50:25.471Z,3.08
2018-07-22T14:52:53.544Z,3.00
2018-07-22T14:55:21.856Z,2.55
2018-07-22T14:57:49.929Z,2.80
2018-07-22T15:00:18.206Z,3.17
2018-07-22T15:02:46.507Z,2.67
2018-07-22T15:05:14.685Z,2.72
2018-07-22T15:07:42.762Z,3.15
2018-07-22T15:10:11.357Z,3.37
2018-07-22T15:12:39.430Z,3.55
2018-07-22T15:15:07.514Z,3.00
2018-07-22T15:17:35.872Z,3.15
2018-07-22T15:20:04.356Z,2.70
2018-07-22T15:22:32.474Z,3.00
2018-07-22T15:25:00.898Z,2.80
2018-07-22T15:27:29.256Z,4.08
2018-07-22T15:29:57.449Z,2.87
2018-07-22T15:32:25.752Z,3.20
2018-07-22T15:34:53.863Z,3.00
2018-07-22T15:37:21.915Z,2.77
2018-07-22T15:39:51.349Z,3.10
2018-07-22T15:42:19.490Z,3.08
2018-07-22T15:44:47.542Z,2.50
2018-07-22T15:47:16.025Z,3.00
2018-07-22T15:49:44.090Z,2.45
2018-07-22T15:52:12.248Z,2.90
2018-07-22T15:54:40.586Z,2.90
2018-07-22T15:57:08.691Z,2.67
2018-07-22T15:59:36.762Z,2.72
2018-07-22T16:02:06.131Z,2.77
2018-07-22T16:04:34.233Z,3.10
2018-07-22T16:07:02.140Z,3.10
2018-07-22T16:09:30.494Z,2.95
2018-07-22T16:11:58.561Z,2.42
2018-07-22T16:14:26.643Z,3.42
2018-07-22T16:16:55.039Z,2.98
2018-07-22T16:19:23.122Z,2.83
2018-07-22T16:21:51.198Z,2.70
2018-07-22T16:24:19.620Z,3.42
2018-07-22T16:26:47.715Z,3.37
2018-07-22T16:29:15.790Z,2.90
2018-07-22T16:31:44.249Z,3.22
2018-07-22T16:34:12.328Z,3.80
2018-07-22T16:36:40.504Z,4.58
2018-07-22T16:39:09.670Z,3.42
2018-07-22T16:41:38.090Z,3.55
2018-07-22T16:44:06.802Z,4.33
2018-07-22T16:46:35.227Z,3.58
2018-07-22T16:49:03.423Z,3.70
2018-07-22T16:51:31.593Z,3.87
2018-07-22T16:54:00.000Z,3.90
2018-07-22T16:56:28.075Z,4.53
2018-07-22T16:58:56.191Z,4.60
2018-07-22T17:01:24.610Z,4.45
2018-07-22T17:03:52.682Z,4.10
2018-07-22T17:06:20.798Z,5.00
2018-07-22T17:08:49.116Z,3.37
2018-07-22T17:11:17.246Z,4.28
2018-07-22T17:13:45.098Z,4.25
2018-07-22T17:16:13.202Z,4.35
2018-07-22T17:18:41.261Z,4.83
2018-07-22T17:21:09.335Z,4.95
2018-07-22T17:23:37.441Z,5.35
2018-07-22T17:26:05.537Z,5.05
2018-07-22T17:28:33.612Z,5.62
2018-07-22T17:31:01.969Z,5.85
2018-07-22T17:33:30.035Z,5.00
2018-07-22T17:35:58.097Z,5.30
2018-07-22T17:38:26.488Z,6.03
2018-07-22T17:40:54.545Z,5.17
2018-07-22T17:43:22.619Z,5.37
2018-07-22T17:45:50.683Z,6.70
2018-07-22T17:48:18.746Z,6.00
2018-07-22T17:50:46.837Z,5.80
2018-07-22T17:53:15.230Z,5.83
2018-07-22T17:55:43.306Z,5.35
2018-07-22T17:58:11.380Z,5.75
2018-07-22T18:00:39.475Z,5.58
2018-07-22T18:03:22.130Z,5.67
2018-07-22T18:05:50.854Z,4.90
2018-07-22T18:08:19.244Z,5.15
2018-07-22T18:10:47.628Z,4.85
2018-07-22T18:13:16.331Z,5.97
2018-07-22T18:15:44.403Z,4.85
2018-07-22T18:18:13.277Z,4.40
2018-07-22T18:20:41.891Z,4.12
2018-07-22T18:23:10.235Z,4.40
2018-07-22T18:25:38.995Z,4.30
2018-07-22T18:28:07.061Z,4.40
2018-07-22T18:30:35.136Z,4.45
2018-07-22T18:33:03.288Z,4.33
2018-07-22T18:35:31.634Z,3.95
2018-07-22T18:37:59.757Z,4.08
2018-07-22T18:40:27.827Z,3.35
2018-07-22T18:42:56.999Z,3.67
2018-07-22T18:45:25.416Z,3.72
2018-07-22T18:47:53.744Z,3.52
2018-07-22T18:50:22.154Z,4.08
2018-07-22T18:52:50.270Z,3.37
2018-07-22T18:55:18.652Z,3.60
2018-07-22T18:57:47.000Z,3.83
2018-07-22T19:00:15.287Z,3.70
2018-07-22T19:02:44.133Z,3.98
2018-07-22T19:05:12.595Z,3.62
2018-07-22T19:07:40.803Z,4.05
2018-07-22T19:10:08.874Z,3.77
2018-07-22T19:12:37.421Z,4.80
2018-07-22T19:15:05.534Z,3.87
2018-07-22T19:17:33.616Z,4.80
2018-07-22T19:20:02.017Z,4.42
2018-07-22T19:22:30.092Z,5.28
2018-07-22T19:24:58.161Z,4.78
2018-07-22T19:27:26.519Z,4.42
2018-07-22T19:29:54.582Z,4.85
2018-07-22T19:32:22.655Z,5.35
2018-07-22T19:34:50.983Z,4.85
2018-07-22T19:37:19.131Z,4.97
2018-07-22T19:39:47.216Z,5.35
2018-07-22T19:42:15.587Z,4.70
2018-07-22T19:44:46.137Z,5.17
2018-07-22T19:47:15.631Z,5.17
2018-07-22T19:49:43.710Z,4.92
2018-07-22T19:52:11.766Z,5.03
2018-07-22T19:54:39.881Z,4.37
2018-07-22T19:57:07.930Z,5.15
2018-07-22T19:59:36.086Z,5.28
2018-07-22T20:02:04.517Z,4.60
2018-07-22T20:04:32.591Z,5.80
2018-07-22T20:07:00.660Z,5.20
2018-07-22T20:09:29.059Z,4.95
2018-07-22T20:11:57.114Z,5.10
2018-07-22T20:14:25.189Z,5.15
2018-07-22T20:16:53.561Z,5.50
2018-07-22T20:19:21.720Z,5.12
2018-07-22T20:21:49.770Z,6.03
2018-07-22T20:24:18.280Z,5.72
2018-07-22T20:26:46.273Z,5.33
2018-07-22T20:29:14.230Z,5.55
2018-07-22T20:31:42.609Z,6.85
2018-07-22T20:34:10.718Z,6.55
2018-07-22T20:36:38.790Z,6.50
2018-07-22T20:39:09.260Z,6.50
2018-07-22T20:41:37.572Z,7.10
2018-07-22T20:44:06.154Z,6.37
2018-07-22T20:46:34.230Z,5.78
2018-07-22T20:49:02.305Z,5.87
2018-07-22T20:51:30.384Z,6.20
2018-07-22T20:53:58.447Z,6.15
2018-07-22T20:56:26.734Z,5.60
2018-07-22T20:58:54.815Z,5.67
2018-07-22T21:01:22.764Z,6.00
2018-07-22T21:03:50.815Z,5.40
2018-07-22T21:06:18.931Z,5.50
2018-07-22T21:08:47.363Z,5.85
2018-07-22T21:11:15.766Z,5.42
2018-07-22T21:13:43.827Z,5.35
2018-07-22T21:16:12.206Z,5.22
2018-07-22T21:18:40.259Z,5.72
2018-07-22T21:21:08.361Z,5.80
2018-07-22T21:23:36.392Z,5.67
2018-07-22T21:26:04.454Z,5.60
2018-07-22T21:28:32.540Z,5.78
2018-07-22T21:31:00.934Z,5.95
2018-07-22T21:33:29.309Z,5.87
2018-07-22T21:35:57.396Z,6.75
2018-07-22T21:38:25.765Z,6.30
2018-07-22T21:40:53.851Z,6.40
2018-07-22T21:43:21.930Z,6.00
2018-07-22T21:45:50.174Z,6.45
2018-07-22T21:48:18.267Z,6.22
2018-07-22T21:50:46.449Z,6.60
2018-07-22T21:53:14.914Z,6.67
2018-07-22T21:55:43.166Z,6.58
2018-07-22T21:58:11.400Z,7.40
2018-07-22T22:00:44.309Z,7.47
2018-07-22T22:03:12.165Z,7.25
2018-07-22T22:05:40.240Z,7.60
2018-07-22T22:08:08.666Z,6.75
2018-07-22T22:10:37.132Z,7.50
2018-07-22T22:13:05.470Z,7.22
2018-07-22T22:15:33.587Z,7.28
2018-07-22T22:18:02.810Z,7.35
2018-07-22T22:20:31.319Z,7.95
2018-07-22T22:22:59.968Z,7.70
2018-07-22T22:25:28.044Z,7.40
2018-07-22T22:27:56.175Z,8.65
2018-07-22T22:30:24.245Z,7.97
2018-07-22T22:32:52.311Z,8.10
2018-07-22T22:35:20.484Z,7.47
2018-07-22T22:37:48.908Z,7.33
2018-07-22T22:40:17.149Z,7.08
2018-07-22T22:42:46.213Z,8.53
2018-07-22T22:45:15.281Z,8.63
2018-07-22T22:47:43.326Z,8.25
2018-07-22T22:50:11.398Z,7.65
2018-07-22T22:52:39.486Z,7.55
2018-07-22T22:55:07.582Z,7.73
2018-07-22T22:57:35.650Z,8.08
2018-07-22T23:00:04.240Z,8.03
2018-07-22T23:02:34.302Z,8.43
2018-07-22T23:05:02.905Z,7.95
2018-07-22T23:07:30.990Z,7.87
2018-07-22T23:09:59.066Z,8.58
2018-07-22T23:12:27.146Z,7.97
2018-07-22T23:14:55.218Z,8.65
2018-07-22T23:17:23.282Z,9.20
2018-07-22T23:19:51.362Z,8.40
2018-07-22T23:22:19.482Z,9.13
2018-07-22T23:24:47.562Z,8.57
2018-07-22T23:27:15.644Z,8.95
2018-07-22T23:29:43.986Z,9.15
2018-07-22T23:32:12.074Z,8.70
2018-07-22T23:34:40.147Z,9.58
2018-07-22T23:37:08.270Z,8.25
2018-07-22T23:39:36.386Z,9.80
2018-07-22T23:42:04.487Z,9.25
2018-07-22T23:44:32.429Z,9.00
2018-07-22T23:47:00.599Z,8.28
2018-07-22T23:49:28.670Z,9.00
2018-07-22T23:51:57.138Z,8.90
2018-07-22T23:54:25.233Z,8.77
2018-07-22T23:56:53.294Z,8.93
2018-07-22T23:59:21.370Z,9.00
